Venice, Italy

12:55 AM CEST on July 26, 2016 (GMT +0200)
Venezia | | Change Station

Elev 14 ft 45.53 °N, 12.31 °E | Updated 5 seconds ago

Clear
Clear
73.0 °F
Feels Like 74 °F
N
0.0
Wind Variable Wind from North
Gusts 0.0 mph

Today
High -- | Low -- °F
--% Chance of Precip.
Yesterday
High -- | Low -- °F
Precip. -- in
Pressure 29.95 in
Visibility -9999.0 miles
Clouds
Heat Index 74 °F
Dew Point 65 °F
Humidity 76%
Rainfall 0.00 in
Snow Depth Not available.
5:48 AM 8:45 PM
Waning Gibbous, 61% visible
METAR LIPZ 252250Z 03008KT CAVOK 27/17 Q1014 NOSIG
Pressure 29.95 in
Visibility -9999.0 miles
Clouds
Heat Index 74 °F
Dew Point 65 °F
Humidity 76%
Rainfall 0.00 in
Snow Depth Not available.
5:48 AM 8:45 PM
Waning Gibbous, 61% visible
METAR LIPZ 252250Z 03008KT CAVOK 27/17 Q1014 NOSIG

10-Day Weather Forecast

×

Almanac

Astronomy

Jul. 26, 2016 Rise Set
Actual Time
Civil Twilight
Nautical Twilight
Astronomical Twilight
Moon
Length of Visible Light
Length of Day
Tomorrow will be .
, % of the Moon is Illuminated

Today's Extremes

Country Highs Country Lows

Community

WunderPhotos

Upload Photos

1,927,436 photos uploaded!

WunderBlog® & News

Nearby

Air Quality

  Air Quality AQ Index Pollutant
Not available.

Snow Depth

Station Depth Elevation

Earthquake Activity

City Distance Mag. Time & Date
Minimum magnitude displayed is 2.5.

Coastal Water Temperatures

Place Temperature

Stations

Nearby Weather Stations

Station Location Temp. Windchill Dew Point Humidity Wind Precip. Elev Updated Type